Time;durP1;ratioP1;P1;durP2;ratioP2;P2;SDS_P1;SDS_P2;PMS_P1;PMS_P2;Temp;Humidity;BMP_temperature;BMP_pressure;BME280_temperature;BME280_humidity;BME280_pressure;Samples;Min_cycle;Max_cycle;Signal;HPM_P1;HPM_P2
2022/03/18 00:02:04;;;;;;;50.63;37.37;;;5.50;96.30;;;;;;4899826;29;20476;-75
2022/03/18 00:04:30;;;;;;;53.70;35.80;;;5.50;96.30;;;;;;4899744;29;20207;-76
2022/03/18 00:06:56;;;;;;;54.83;35.30;;;5.50;96.30;;;;;;4916769;29;20524;-75
2022/03/18 00:09:21;;;;;;;51.40;35.30;;;5.50;96.30;;;;;;4916201;29;20184;-75
2022/03/18 00:11:47;;;;;;;49.23;36.20;;;5.40;96.30;;;;;;4899574;29;20207;-75
2022/03/18 00:14:13;;;;;;;50.60;35.37;;;5.40;96.30;;;;;;4916687;29;20177;-76
2022/03/18 00:16:38;;;;;;;46.57;34.50;;;5.50;96.30;;;;;;4899885;29;20184;-76
2022/03/18 00:19:04;;;;;;;50.10;33.33;;;5.40;96.30;;;;;;4899233;29;20524;-75
2022/03/18 00:21:29;;;;;;;51.17;35.73;;;5.40;96.30;;;;;;4899463;29;20207;-75
2022/03/18 00:23:55;;;;;;;50.47;35.83;;;5.40;96.30;;;;;;4916480;29;20184;-76
2022/03/18 00:26:20;;;;;;;52.30;35.20;;;5.40;96.30;;;;;;4916357;29;20658;-75
2022/03/18 00:28:46;;;;;;;51.50;34.37;;;5.40;96.30;;;;;;4916237;29;20878;-75
2022/03/18 00:31:12;;;;;;;45.83;34.03;;;5.40;96.30;;;;;;4916311;29;20256;-76
2022/03/18 00:33:37;;;;;;;49.03;32.30;;;5.40;96.30;;;;;;4916313;29;20207;-77
2022/03/18 00:36:03;;;;;;;50.30;31.87;;;5.40;96.30;;;;;;4922871;29;20227;-76
2022/03/18 00:38:29;;;;;;;43.63;30.57;;;5.40;96.30;;;;;;4899196;29;20259;-75
2022/03/18 00:40:56;;;;;;;45.23;31.80;;;5.30;96.30;;;;;;4916150;29;20262;-75
2022/03/18 00:43:22;;;;;;;51.07;30.90;;;5.20;96.30;;;;;;4899239;29;20953;-76
2022/03/18 00:45:48;;;;;;;46.83;28.80;;;5.20;96.30;;;;;;4916109;29;20412;-76
2022/03/18 00:53:42;;;;;;;35.43;24.47;;;5.10;96.30;;;;;;4916358;29;20913;-77
2022/03/18 00:56:07;;;;;;;45.80;27.43;;;5.00;96.30;;;;;;4916008;29;20417;-75
2022/03/18 00:58:33;;;;;;;40.60;27.10;;;5.00;96.30;;;;;;4915802;29;20212;-75
2022/03/18 05:01:47;;;;;;;37.70;22.40;;;4.00;96.30;;;;;;5329213;23;20504;-76
2022/03/18 05:04:12;;;;;;;50.10;20.97;;;4.00;96.30;;;;;;4956157;28;20421;-76
2022/03/18 05:06:39;;;;;;;59.40;24.20;;;4.00;96.30;;;;;;4973307;28;20418;-76
2022/03/18 05:09:05;;;;;;;43.17;21.93;;;4.10;96.30;;;;;;4955452;28;20229;-77
2022/03/18 05:11:30;;;;;;;43.20;23.37;;;4.00;96.30;;;;;;4962378;28;20793;-77
2022/03/18 05:13:57;;;;;;;45.33;21.23;;;4.00;96.30;;;;;;4940445;29;20178;-79
2022/03/18 05:16:24;;;;;;;42.83;21.97;;;4.10;96.30;;;;;;4950399;29;20209;-78
2022/03/18 05:18:50;;;;;;;46.87;24.67;;;4.10;96.30;;;;;;4938430;29;20485;-76
2022/03/18 05:21:15;;;;;;;55.60;26.23;;;4.00;96.30;;;;;;4953909;28;20874;-77
2022/03/18 05:23:41;;;;;;;41.97;24.57;;;4.00;96.30;;;;;;4954001;29;20254;-77
2022/03/18 05:26:07;;;;;;;50.80;28.03;;;4.00;96.30;;;;;;4936662;29;20185;-78
2022/03/18 05:28:32;;;;;;;60.87;31.73;;;4.00;96.30;;;;;;4959233;29;20159;-76
2022/03/18 05:30:58;;;;;;;52.80;28.00;;;4.00;96.30;;;;;;4937083;29;21198;-75
2022/03/18 05:33:24;;;;;;;47.73;26.10;;;4.00;96.30;;;;;;4936851;29;20233;-75
2022/03/18 05:35:50;;;;;;;50.50;27.30;;;4.00;96.30;;;;;;4936592;29;20225;-75
2022/03/18 05:38:15;;;;;;;55.67;29.10;;;4.00;96.30;;;;;;4956335;28;20414;-76
2022/03/18 05:40:41;;;;;;;51.57;28.23;;;4.00;96.30;;;;;;4957518;28;20298;-78
2022/03/18 05:43:07;;;;;;;55.80;28.37;;;4.00;96.30;;;;;;4940420;29;20266;-78
2022/03/18 05:45:33;;;;;;;48.03;25.30;;;4.00;96.30;;;;;;4957999;29;20407;-77
2022/03/18 05:47:59;;;;;;;51.57;24.93;;;4.00;96.30;;;;;;4940310;29;20940;-76
2022/03/18 05:50:25;;;;;;;48.07;25.60;;;4.00;96.30;;;;;;4957633;28;20175;-75
2022/03/18 05:52:50;;;;;;;41.33;25.57;;;4.00;96.30;;;;;;4957528;29;20186;-75
2022/03/18 05:55:16;;;;;;;44.17;26.77;;;4.00;96.30;;;;;;4934194;29;20439;-76
2022/03/18 05:57:42;;;;;;;51.23;27.67;;;4.00;96.30;;;;;;4939694;29;20577;-77
2022/03/18 06:00:08;;;;;;;47.30;25.13;;;4.00;96.30;;;;;;4938144;29;20207;-76
2022/03/18 06:02:33;;;;;;;42.87;26.37;;;4.00;96.30;;;;;;4938120;29;20467;-75
2022/03/18 06:05:00;;;;;;;60.63;29.33;;;4.10;96.30;;;;;;4938095;29;20455;-76
2022/03/18 06:07:25;;;;;;;53.27;30.50;;;4.00;96.30;;;;;;4920869;29;20194;-79
2022/03/18 06:12:35;;;;;;;60.43;31.07;;;4.10;96.30;;;;;;4937489;29;20202;-75
2022/03/18 06:15:00;;;;;;;54.77;28.90;;;4.00;96.30;;;;;;4938038;29;20443;-77
2022/03/18 06:17:26;;;;;;;47.50;28.90;;;4.00;96.30;;;;;;4937953;29;20266;-75
2022/03/18 06:19:51;;;;;;;56.40;29.77;;;4.00;96.30;;;;;;4937693;29;20678;-78
2022/03/18 06:22:17;;;;;;;54.20;29.40;;;4.00;96.30;;;;;;4954110;28;20210;-76
2022/03/18 06:24:42;;;;;;;55.20;29.40;;;4.00;96.30;;;;;;4920823;29;20175;-76
2022/03/18 06:27:08;;;;;;;51.33;29.67;;;4.00;96.30;;;;;;4937887;29;20172;-77
2022/03/18 06:29:35;;;;;;;51.23;30.63;;;4.00;96.30;;;;;;4936225;29;20171;-76
2022/03/18 06:32:01;;;;;;;47.10;28.07;;;4.00;96.30;;;;;;4920644;29;20206;-77
2022/03/18 06:34:26;;;;;;;48.60;30.00;;;4.00;96.30;;;;;;4937733;29;20404;-76
2022/03/18 06:36:54;;;;;;;54.53;32.47;;;4.00;96.30;;;;;;4937748;29;20180;-75
2022/03/18 06:39:22;;;;;;;52.40;29.33;;;4.00;96.30;;;;;;4941982;29;20376;-77
2022/03/18 06:41:48;;;;;;;61.00;31.67;;;4.00;96.30;;;;;;4956500;29;20780;-77
2022/03/18 06:44:13;;;;;;;51.70;29.57;;;4.00;96.30;;;;;;4956361;29;20442;-77
2022/03/18 06:46:39;;;;;;;50.47;28.70;;;4.00;96.30;;;;;;4939292;29;20422;-76
2022/03/18 06:49:05;;;;;;;57.20;29.30;;;4.00;96.30;;;;;;4937777;29;20171;-76
2022/03/18 06:51:32;;;;;;;55.77;29.87;;;4.00;96.30;;;;;;4953760;29;20206;-78
2022/03/18 06:53:58;;;;;;;58.10;30.27;;;4.00;96.30;;;;;;4937186;29;20416;-75
2022/03/18 06:56:25;;;;;;;52.03;26.00;;;4.00;96.30;;;;;;4911795;29;20478;-77
2022/03/18 06:58:51;;;;;;;57.83;30.40;;;4.00;96.30;;;;;;4917108;28;20486;-77
2022/03/18 07:01:17;;;;;;;50.77;29.80;;;4.00;96.30;;;;;;4951614;28;21120;-77
2022/03/18 07:03:42;;;;;;;53.93;31.93;;;4.00;96.30;;;;;;4954596;28;20494;-78
2022/03/18 07:06:08;;;;;;;59.20;30.60;;;4.00;96.30;;;;;;4954955;28;20194;-77
2022/03/18 07:08:34;;;;;;;59.27;33.40;;;4.00;96.30;;;;;;4955521;29;20198;-76
2022/03/18 07:10:59;;;;;;;58.70;31.70;;;4.00;96.30;;;;;;4936062;28;20587;-78
2022/03/18 07:13:25;;;;;;;51.37;32.20;;;4.00;96.30;;;;;;4935667;29;20493;-76
2022/03/18 07:15:51;;;;;;;67.83;34.50;;;4.00;96.30;;;;;;4930286;28;20207;-77
2022/03/18 07:18:16;;;;;;;55.90;32.33;;;4.00;96.30;;;;;;4931039;29;20201;-77
2022/03/18 07:20:42;;;;;;;67.57;38.63;;;4.00;96.30;;;;;;4932399;29;20211;-79
2022/03/18 07:23:11;;;;;;;62.33;36.10;;;4.00;96.30;;;;;;4948352;28;20923;-77
2022/03/18 07:25:45;;;;;;;61.67;35.93;;;4.00;96.30;;;;;;4938548;28;20423;-79
2022/03/18 07:28:13;;;;;;;61.80;36.97;;;4.00;96.30;;;;;;4953110;28;20415;-79
2022/03/18 07:30:40;;;;;;;57.80;35.20;;;4.10;96.30;;;;;;4947994;28;20443;-78
2022/03/18 07:33:06;;;;;;;61.93;35.37;;;4.10;96.30;;;;;;4949299;28;20429;-78
2022/03/18 07:35:34;;;;;;;58.30;34.33;;;4.10;96.30;;;;;;4927065;29;20831;-76
2022/03/18 07:38:00;;;;;;;52.60;34.47;;;4.10;96.30;;;;;;4954596;29;20640;-77
2022/03/18 07:40:26;;;;;;;58.53;37.97;;;4.10;96.30;;;;;;4955090;28;21105;-78
2022/03/18 07:42:53;;;;;;;60.33;34.60;;;4.10;96.30;;;;;;4956124;28;20427;-78
2022/03/18 07:45:30;;;;;;;62.80;36.80;;;4.20;96.30;;;;;;4945694;28;20225;-77
2022/03/18 07:47:59;;;;;;;57.17;33.50;;;4.20;96.30;;;;;;4951042;28;20820;-77
2022/03/18 07:50:26;;;;;;;61.53;35.03;;;4.20;96.30;;;;;;4952726;29;20423;-77
2022/03/18 07:52:55;;;;;;;57.40;34.30;;;4.20;96.30;;;;;;4923911;29;20424;-77
2022/03/18 07:55:22;;;;;;;52.90;32.17;;;4.20;96.30;;;;;;4922842;29;20936;-76
2022/03/18 07:57:48;;;;;;;57.67;33.50;;;4.20;96.30;;;;;;4955857;28;20492;-78
2022/03/18 08:00:15;;;;;;;48.00;29.47;;;4.20;96.30;;;;;;4934376;29;20450;-78
2022/03/18 08:02:42;;;;;;;44.27;28.90;;;4.20;96.30;;;;;;4947566;29;20420;-77
2022/03/18 08:05:08;;;;;;;56.27;28.60;;;4.20;96.30;;;;;;4933271;28;20842;-76
2022/03/18 08:07:34;;;;;;;52.10;31.83;;;4.20;96.30;;;;;;4952184;29;20976;-76
2022/03/18 08:10:00;;;;;;;49.80;31.07;;;4.20;96.30;;;;;;4948865;28;20430;-76
2022/03/18 08:12:28;;;;;;;52.93;31.20;;;4.20;96.30;;;;;;4969864;28;20437;-76
2022/03/18 08:14:58;;;;;;;48.93;27.67;;;4.30;96.30;;;;;;4927537;29;20197;-77
2022/03/18 08:17:24;;;;;;;42.00;27.27;;;4.30;96.30;;;;;;4920581;29;20416;-82
2022/03/18 08:19:51;;;;;;;47.10;28.10;;;4.20;96.30;;;;;;4952037;28;20454;-78
2022/03/18 08:22:18;;;;;;;46.30;30.23;;;4.30;96.30;;;;;;4925195;29;20200;-77
2022/03/18 08:24:43;;;;;;;48.23;28.67;;;4.20;96.30;;;;;;4934504;29;20965;-76
2022/03/18 08:27:09;;;;;;;46.73;28.17;;;4.20;96.30;;;;;;4947805;28;20523;-78
2022/03/18 08:29:34;;;;;;;42.83;28.43;;;4.20;96.30;;;;;;4953182;28;20557;-77
2022/03/18 08:32:00;;;;;;;45.80;26.23;;;4.30;96.30;;;;;;4936393;28;20210;-78
2022/03/18 08:34:25;;;;;;;46.63;25.53;;;4.30;96.30;;;;;;4950108;28;20191;-78
2022/03/18 08:36:51;;;;;;;46.33;26.50;;;4.30;96.30;;;;;;4954196;28;20182;-76
2022/03/18 08:39:16;;;;;;;49.00;25.50;;;4.30;96.30;;;;;;4954679;28;20225;-77
2022/03/18 08:41:42;;;;;;;44.03;24.93;;;4.40;96.30;;;;;;4942028;29;20876;-77
2022/03/18 08:44:07;;;;;;;46.80;26.10;;;4.30;96.30;;;;;;4952672;28;20195;-78
2022/03/18 08:46:34;;;;;;;42.10;23.90;;;4.30;96.30;;;;;;4924823;29;20207;-79
2022/03/18 08:49:00;;;;;;;37.63;23.60;;;4.30;96.30;;;;;;4931553;29;20230;-79
2022/03/18 08:51:26;;;;;;;50.00;27.67;;;4.30;96.30;;;;;;4928656;28;20447;-77
2022/03/18 08:53:51;;;;;;;44.53;27.07;;;4.30;96.30;;;;;;4956451;28;20239;-79
2022/03/18 08:56:17;;;;;;;48.47;28.43;;;4.40;96.30;;;;;;4935838;28;20192;-79
2022/03/18 08:58:42;;;;;;;43.00;28.50;;;4.40;96.30;;;;;;4933735;29;20270;-79
2022/03/18 09:01:08;;;;;;;52.10;29.10;;;4.40;96.30;;;;;;4936863;29;20255;-77
2022/03/18 09:03:33;;;;;;;48.70;28.73;;;4.40;96.30;;;;;;4952234;28;20179;-79
2022/03/18 09:06:00;;;;;;;49.00;31.07;;;4.50;96.30;;;;;;4936385;29;20179;-79
2022/03/18 09:08:25;;;;;;;45.73;28.27;;;4.50;96.30;;;;;;4948151;29;20167;-79
2022/03/18 09:10:51;;;;;;;52.07;29.20;;;4.60;96.30;;;;;;4944690;28;20450;-77
2022/03/18 09:13:16;;;;;;;45.70;23.80;;;4.60;96.30;;;;;;4921745;29;20672;-78
2022/03/18 09:15:42;;;;;;;54.07;27.60;;;4.60;96.30;;;;;;4914304;29;20314;-79
2022/03/18 09:18:08;;;;;;;43.13;25.87;;;4.50;96.30;;;;;;4953554;29;20261;-79
2022/03/18 09:20:33;;;;;;;46.37;26.40;;;4.50;96.30;;;;;;4931842;28;20347;-78
2022/03/18 09:22:59;;;;;;;51.77;28.07;;;4.50;96.30;;;;;;4947003;28;20192;-78
2022/03/18 09:25:24;;;;;;;44.63;27.93;;;4.60;96.30;;;;;;4932249;28;20222;-79
2022/03/18 09:27:51;;;;;;;44.97;31.50;;;4.60;96.30;;;;;;4921965;29;20183;-76
2022/03/18 09:30:16;;;;;;;51.30;30.50;;;4.70;96.30;;;;;;4925181;28;20185;-76
2022/03/18 09:32:45;;;;;;;50.00;30.17;;;4.90;96.30;;;;;;4949675;28;20453;-76
2022/03/18 09:35:12;;;;;;;51.77;29.00;;;5.00;96.30;;;;;;4934410;29;20183;-77
2022/03/18 09:37:37;;;;;;;57.40;29.37;;;5.10;96.30;;;;;;4948348;28;20422;-78
2022/03/18 09:40:05;;;;;;;48.90;30.60;;;5.20;96.30;;;;;;4967207;28;20486;-77
2022/03/18 09:42:32;;;;;;;43.93;26.87;;;5.30;96.30;;;;;;4953753;29;20947;-76
2022/03/18 09:44:58;;;;;;;56.53;30.40;;;5.40;96.30;;;;;;4925014;29;20435;-78
2022/03/18 09:47:24;;;;;;;49.40;29.40;;;5.70;96.30;;;;;;4917740;29;20800;-77
2022/03/18 09:49:49;;;;;;;42.80;29.77;;;6.00;96.30;;;;;;4943631;28;20191;-78
2022/03/18 09:52:15;;;;;;;48.67;30.67;;;5.90;96.30;;;;;;4917680;29;20443;-79
2022/03/18 09:54:41;;;;;;;52.23;30.60;;;6.10;96.30;;;;;;4925001;29;20194;-76
2022/03/18 09:57:08;;;;;;;41.97;26.50;;;6.20;96.30;;;;;;4960318;28;20202;-77
2022/03/18 09:59:34;;;;;;;35.33;24.23;;;6.30;96.30;;;;;;4952489;28;20505;-76
2022/03/18 10:02:20;;;;;;;34.90;23.10;;;6.10;96.30;;;;;;4954384;28;20456;-75
2022/03/18 10:04:54;;;;;;;36.50;23.00;;;5.80;96.30;;;;;;4934349;29;20419;-76
2022/03/18 10:07:21;;;;;;;41.90;23.40;;;5.60;96.30;;;;;;4943487;28;20417;-76
2022/03/18 10:09:47;;;;;;;44.90;24.73;;;5.50;96.30;;;;;;4936840;28;20435;-77
2022/03/18 10:12:33;;;;;;;36.83;23.73;;;5.50;96.30;;;;;;4957129;28;20497;-78
2022/03/18 10:15:28;;;;;;;38.90;26.37;;;5.60;96.30;;;;;;4934071;28;20435;-77
2022/03/18 10:17:58;;;;;;;41.27;25.43;;;5.80;96.30;;;;;;4938500;28;20491;-76
2022/03/18 10:20:36;;;;;;;36.80;24.80;;;6.00;96.30;;;;;;4917699;29;20467;-76
2022/03/18 10:23:15;;;;;;;42.53;28.00;;;6.20;96.30;;;;;;4961367;28;20933;-77
2022/03/18 10:25:42;;;;;;;45.13;29.93;;;6.20;96.30;;;;;;4936397;29;20438;-77
2022/03/18 10:28:10;;;;;;;46.97;30.27;;;6.40;96.30;;;;;;4960277;28;20859;-77
2022/03/18 10:30:36;;;;;;;41.13;28.13;;;6.60;96.30;;;;;;4966245;28;20447;-77
2022/03/18 10:33:03;;;;;;;37.80;25.30;;;6.90;96.30;;;;;;4941027;28;20975;-76
2022/03/18 10:38:37;;;;;;;36.40;25.07;;;6.90;96.30;;;;;;4937459;29;20415;-76
2022/03/18 10:41:08;;;;;;;39.37;23.30;;;7.00;96.30;;;;;;4952323;28;20470;-76
2022/03/18 10:43:53;;;;;;;38.13;25.03;;;6.80;96.30;;;;;;4920683;29;20423;-76
2022/03/18 10:46:22;;;;;;;40.90;26.63;;;6.70;96.30;;;;;;4928826;29;21046;-79
2022/03/18 10:49:15;;;;;;;45.87;29.43;;;6.90;96.30;;;;;;4936700;29;20435;-76
2022/03/18 10:51:41;;;;;;;40.17;27.80;;;7.10;96.30;;;;;;4945467;28;20458;-76
2022/03/18 10:54:07;;;;;;;36.37;27.07;;;7.20;96.30;;;;;;4956317;29;20410;-76
2022/03/18 10:56:53;;;;;;;36.10;26.20;;;7.40;96.30;;;;;;4940100;29;20179;-78
2022/03/18 10:59:19;;;;;;;36.13;24.83;;;7.50;96.30;;;;;;4937015;29;20211;-77
2022/03/18 11:01:50;;;;;;;39.73;26.07;;;7.30;96.30;;;;;;4935204;29;20509;-77
2022/03/18 11:04:16;;;;;;;45.33;27.97;;;7.10;96.30;;;;;;4956548;29;20679;-76
2022/03/18 11:06:42;;;;;;;45.10;29.97;;;7.20;96.30;;;;;;4956365;29;20434;-77
2022/03/18 11:09:14;;;;;;;44.90;32.20;;;7.30;96.30;;;;;;4956123;29;20179;-76
2022/03/18 11:11:41;;;;;;;42.87;31.50;;;7.40;96.30;;;;;;4938791;29;20458;-79
2022/03/18 11:14:09;;;;;;;44.90;31.60;;;7.90;96.30;;;;;;4938751;29;21106;-79
2022/03/18 11:16:38;;;;;;;48.47;30.40;;;8.00;96.30;;;;;;4955996;29;20932;-78
2022/03/18 11:19:08;;;;;;;38.63;27.20;;;8.20;96.30;;;;;;4935139;28;20986;-79
2022/03/18 11:21:41;;;;;;;36.87;26.20;;;8.00;96.30;;;;;;4916310;29;20939;-79
2022/03/18 11:24:14;;;;;;;35.87;27.67;;;7.80;96.30;;;;;;4932149;29;20441;-77
2022/03/18 11:26:46;;;;;;;42.63;28.83;;;8.00;96.30;;;;;;4943957;28;20423;-78
2022/03/18 11:29:14;;;;;;;46.87;28.77;;;8.00;96.30;;;;;;4949020;28;20440;-78
2022/03/18 11:31:40;;;;;;;33.93;23.30;;;7.70;96.30;;;;;;4913041;29;20457;-79
2022/03/18 11:34:11;;;;;;;43.30;23.07;;;7.70;96.30;;;;;;4915181;29;20863;-77
2022/03/18 11:36:44;;;;;;;38.77;24.43;;;7.60;96.30;;;;;;4921534;29;20486;-78
2022/03/18 11:39:10;;;;;;;43.43;26.03;;;7.60;96.30;;;;;;4932669;28;20440;-77
2022/03/18 12:20:15;;;;;;;35.07;21.77;;;7.70;96.30;;;;;;4944978;29;20539;-76
2022/03/18 12:22:42;;;;;;;31.70;21.00;;;7.60;96.30;;;;;;4936019;29;20511;-77
2022/03/18 12:25:08;;;;;;;39.60;23.73;;;7.50;96.30;;;;;;4919561;29;20502;-76
2022/03/18 12:27:36;;;;;;;36.83;24.77;;;7.50;96.30;;;;;;4935994;29;20419;-78
2022/03/18 12:30:10;;;;;;;33.53;22.60;;;7.50;96.30;;;;;;4918590;29;20424;-77
2022/03/18 12:32:58;;;;;;;29.83;20.00;;;7.40;96.30;;;;;;4934486;29;20439;-78
2022/03/18 12:35:32;;;;;;;40.40;25.80;;;7.50;96.30;;;;;;4916955;29;20426;-78
2022/03/18 12:38:11;;;;;;;33.83;23.63;;;7.50;96.30;;;;;;4934249;29;20979;-80
2022/03/18 12:40:40;;;;;;;39.10;23.10;;;7.80;96.30;;;;;;4917110;29;20470;-80
2022/03/18 12:43:05;;;;;;;31.50;22.57;;;7.90;96.30;;;;;;4917873;29;20423;-80
2022/03/18 12:45:39;;;;;;;36.87;24.67;;;7.80;96.30;;;;;;4934143;29;20435;-80
2022/03/18 12:48:13;;;;;;;36.47;22.77;;;7.60;96.30;;;;;;4917706;29;20179;-79
2022/03/18 12:50:44;;;;;;;36.23;22.13;;;7.50;96.30;;;;;;4936498;29;20439;-79
2022/03/18 12:53:14;;;;;;;36.73;23.57;;;7.80;96.30;;;;;;4936695;29;20411;-80
2022/03/18 12:55:41;;;;;;;35.87;21.10;;;7.70;96.30;;;;;;4936220;29;20480;-80
2022/03/18 12:58:07;;;;;;;37.80;20.93;;;7.70;96.30;;;;;;4918988;29;20427;-79
2022/03/18 13:00:39;;;;;;;46.13;21.20;;;7.50;96.30;;;;;;4919025;29;20459;-78
2022/03/18 13:03:09;;;;;;;34.80;21.23;;;7.50;96.30;;;;;;4936379;29;20183;-80
2022/03/18 13:05:35;;;;;;;30.50;21.87;;;7.50;96.30;;;;;;4918781;29;20486;-78
2022/03/18 13:08:07;;;;;;;36.47;21.67;;;7.50;96.30;;;;;;4934602;29;20419;-80
2022/03/18 13:10:34;;;;;;;37.00;22.10;;;7.90;96.30;;;;;;4937493;29;20202;-78
2022/03/18 13:13:11;;;;;;;31.00;19.23;;;8.30;96.30;;;;;;4921681;29;20950;-79
2022/03/18 13:15:40;;;;;;;38.07;21.80;;;8.20;96.30;;;;;;4940229;29;20403;-80
2022/03/18 13:18:11;;;;;;;30.30;21.03;;;7.90;96.30;;;;;;4922562;29;20443;-78
2022/03/18 13:20:37;;;;;;;33.37;20.93;;;7.90;96.30;;;;;;4923046;29;20466;-78
2022/03/18 13:23:03;;;;;;;28.70;18.73;;;7.80;96.30;;;;;;4937782;29;20454;-80
2022/03/18 13:25:28;;;;;;;35.83;23.40;;;7.70;96.30;;;;;;4939749;29;20823;-80
2022/03/18 13:27:55;;;;;;;34.43;22.87;;;7.70;96.30;;;;;;4939299;29;20443;-79
2022/03/18 13:33:08;;;;;;;35.77;21.93;;;7.70;96.30;;;;;;4939595;29;20419;-80
2022/03/18 13:35:49;;;;;;;36.97;23.13;;;7.50;96.30;;;;;;4939352;29;20426;-80
2022/03/18 13:38:17;;;;;;;32.70;21.50;;;7.60;96.30;;;;;;4936188;29;20514;-81
2022/03/18 13:41:03;;;;;;;27.97;19.90;;;7.60;96.30;;;;;;4937013;29;20486;-81
2022/03/18 13:43:36;;;;;;;31.13;21.90;;;7.80;96.30;;;;;;4936915;29;20407;-81
2022/03/18 13:46:08;;;;;;;35.17;23.27;;;7.90;96.30;;;;;;4919550;29;20423;-79
2022/03/18 13:48:34;;;;;;;33.37;21.10;;;8.00;96.30;;;;;;4936829;29;20901;-80
2022/03/18 13:50:59;;;;;;;32.30;22.83;;;8.20;96.30;;;;;;4936746;29;20594;-81
2022/03/18 13:53:29;;;;;;;31.13;19.13;;;8.60;96.30;;;;;;4936214;29;20175;-81
2022/03/18 13:55:57;;;;;;;34.43;21.87;;;8.80;96.30;;;;;;4936903;29;20258;-82
2022/03/18 13:58:30;;;;;;;29.30;23.10;;;8.70;96.30;;;;;;4922351;29;20423;-81
2022/03/18 14:01:08;;;;;;;36.20;20.43;;;8.60;96.30;;;;;;4944664;29;20470;-81
2022/03/18 14:03:34;;;;;;;34.80;21.40;;;8.60;96.30;;;;;;4941879;29;20434;-80
2022/03/18 14:06:01;;;;;;;27.50;21.00;;;8.30;96.30;;;;;;4926032;29;20930;-81
2022/03/18 14:08:28;;;;;;;28.80;19.83;;;8.20;96.30;;;;;;4950699;29;20420;-77
2022/03/18 14:10:59;;;;;;;28.73;22.03;;;8.10;96.30;;;;;;4943993;29;20442;-79
2022/03/18 14:13:30;;;;;;;31.07;20.83;;;8.10;96.30;;;;;;4943546;29;20388;-79
2022/03/18 14:15:56;;;;;;;32.30;20.70;;;8.10;96.30;;;;;;4944456;29;20419;-78
2022/03/18 14:18:22;;;;;;;32.23;20.87;;;8.40;96.30;;;;;;4946073;29;20520;-78
2022/03/18 14:20:48;;;;;;;32.53;20.67;;;8.70;96.30;;;;;;4929923;29;20491;-78
2022/03/18 14:23:26;;;;;;;31.00;20.57;;;8.90;96.30;;;;;;4930119;29;20195;-77
2022/03/18 14:25:53;;;;;;;28.20;20.87;;;9.00;96.30;;;;;;4929662;29;20175;-78
2022/03/18 14:28:24;;;;;;;34.30;19.97;;;8.90;96.30;;;;;;4947555;29;20412;-80
2022/03/18 14:30:50;;;;;;;35.43;20.80;;;8.70;96.30;;;;;;4951249;29;20949;-78
2022/03/18 14:33:18;;;;;;;32.30;19.93;;;8.70;96.30;;;;;;4949158;29;20451;-79
2022/03/18 14:35:44;;;;;;;28.27;18.97;;;8.60;96.30;;;;;;4931595;29;20443;-79
2022/03/18 14:38:10;;;;;;;29.37;18.90;;;8.30;96.30;;;;;;4948316;29;20423;-79
2022/03/18 14:40:36;;;;;;;28.87;19.93;;;8.20;96.30;;;;;;4950669;29;20479;-78
2022/03/18 14:43:04;;;;;;;32.00;21.30;;;8.20;96.30;;;;;;4946944;29;20183;-79
2022/03/18 14:45:30;;;;;;;39.10;20.37;;;8.10;96.30;;;;;;4940966;29;20419;-79
2022/03/18 14:47:56;;;;;;;34.20;22.00;;;7.90;96.30;;;;;;4923898;29;20423;-80
2022/03/18 14:50:21;;;;;;;34.90;21.73;;;7.80;96.30;;;;;;4923592;29;20188;-80
2022/03/18 14:52:47;;;;;;;27.10;19.47;;;8.00;96.30;;;;;;4939217;29;20187;-80
2022/03/18 14:57:57;;;;;;;40.20;21.63;;;8.20;96.30;;;;;;4944032;29;20230;-79
2022/03/18 15:00:24;;;;;;;35.03;21.57;;;8.20;96.30;;;;;;4944789;29;20527;-80
2022/03/18 15:02:49;;;;;;;37.33;20.93;;;8.30;96.30;;;;;;4942895;29;20997;-79
2022/03/18 15:05:15;;;;;;;38.13;20.60;;;8.30;96.30;;;;;;4927192;29;20455;-78
2022/03/18 15:07:41;;;;;;;36.87;22.43;;;8.30;96.30;;;;;;4943683;29;20207;-79
2022/03/18 15:10:08;;;;;;;29.17;20.40;;;8.40;96.30;;;;;;4943063;29;20184;-79
2022/03/18 15:12:33;;;;;;;27.60;20.43;;;8.20;96.30;;;;;;4944670;29;20444;-78
2022/03/18 15:15:00;;;;;;;30.70;21.80;;;8.30;96.30;;;;;;4944401;29;20466;-79
2022/03/18 15:17:25;;;;;;;34.93;21.60;;;8.10;96.30;;;;;;4926946;29;20278;-78
2022/03/18 15:19:51;;;;;;;29.80;18.93;;;8.00;96.30;;;;;;4942143;29;20466;-80
2022/03/18 15:22:19;;;;;;;28.40;19.80;;;7.80;96.30;;;;;;4927795;29;20697;-79
2022/03/18 15:24:45;;;;;;;33.83;20.63;;;7.70;96.30;;;;;;4927173;29;20595;-80
2022/03/18 15:27:12;;;;;;;33.30;22.07;;;7.70;96.30;;;;;;4926192;29;20426;-80
2022/03/18 15:29:37;;;;;;;37.73;21.63;;;7.70;96.30;;;;;;4943415;29;21063;-80
2022/03/18 15:32:03;;;;;;;33.43;20.30;;;7.60;96.30;;;;;;4943456;29;20431;-79
2022/03/18 15:34:31;;;;;;;38.10;22.23;;;7.50;96.30;;;;;;4945293;29;20175;-80
2022/03/18 15:36:56;;;;;;;30.07;20.70;;;7.50;96.30;;;;;;4944332;29;20542;-79
2022/03/18 15:39:22;;;;;;;32.77;21.00;;;7.50;96.30;;;;;;4942383;29;20420;-80
2022/03/18 15:41:49;;;;;;;40.70;22.47;;;7.50;96.30;;;;;;4926494;29;20211;-80
2022/03/18 15:44:16;;;;;;;30.13;20.93;;;7.50;96.30;;;;;;4943497;29;20426;-78
2022/03/18 15:46:43;;;;;;;30.60;20.83;;;7.50;96.30;;;;;;4927575;29;20422;-80
2022/03/18 15:49:08;;;;;;;29.77;20.80;;;7.40;96.30;;;;;;4926884;29;20419;-78
2022/03/18 15:51:34;;;;;;;33.70;22.90;;;7.20;96.30;;;;;;4943502;29;20431;-80
2022/03/18 15:53:59;;;;;;;30.23;21.67;;;7.20;96.30;;;;;;4943978;29;20254;-79
2022/03/18 15:56:28;;;;;;;33.30;21.50;;;7.20;96.30;;;;;;4940363;29;20187;-80
2022/03/18 15:58:53;;;;;;;30.10;21.00;;;7.20;96.30;;;;;;4943988;29;20199;-79
2022/03/18 16:01:19;;;;;;;31.93;19.97;;;7.20;96.30;;;;;;4941380;29;20570;-80
2022/03/18 16:03:46;;;;;;;41.33;22.87;;;7.20;96.30;;;;;;4923329;29;20183;-79
2022/03/18 16:06:13;;;;;;;31.83;21.33;;;7.10;96.30;;;;;;4923069;29;20423;-80
2022/03/18 16:08:43;;;;;;;34.10;21.33;;;7.10;96.30;;;;;;4922262;29;20508;-79
2022/03/18 16:11:08;;;;;;;30.70;21.23;;;7.10;96.30;;;;;;4940256;29;20435;-80
2022/03/18 16:13:34;;;;;;;35.63;21.43;;;7.00;96.30;;;;;;4922428;29;20428;-80
2022/03/18 16:16:02;;;;;;;34.93;23.60;;;7.00;96.30;;;;;;4922690;29;20183;-80
2022/03/18 16:18:30;;;;;;;33.67;23.13;;;7.00;96.30;;;;;;4922133;29;20558;-80
2022/03/18 16:20:57;;;;;;;42.07;23.40;;;7.00;96.30;;;;;;4922215;29;20471;-76
2022/03/18 16:23:22;;;;;;;34.20;23.03;;;7.00;96.30;;;;;;4936918;29;20420;-78
2022/03/18 16:25:48;;;;;;;33.87;23.63;;;6.90;96.30;;;;;;4937107;29;20475;-78
2022/03/18 16:28:13;;;;;;;33.83;24.20;;;6.90;96.30;;;;;;4936979;29;20227;-79
2022/03/18 16:30:39;;;;;;;47.53;24.03;;;6.90;96.30;;;;;;4919764;29;20351;-77
2022/03/18 16:33:05;;;;;;;43.47;23.43;;;6.90;96.30;;;;;;4936865;29;20740;-77
2022/03/18 16:35:30;;;;;;;42.60;25.13;;;6.90;96.30;;;;;;4935504;29;20186;-78
2022/03/18 16:37:56;;;;;;;36.40;23.97;;;6.90;96.30;;;;;;4936518;29;20175;-77
2022/03/18 16:40:22;;;;;;;37.20;23.60;;;6.90;96.30;;;;;;4936554;29;20255;-77
2022/03/18 16:42:48;;;;;;;37.67;23.77;;;6.80;96.30;;;;;;4936273;29;20187;-77
2022/03/18 16:45:14;;;;;;;37.57;23.53;;;6.80;96.30;;;;;;4935714;29;20235;-77
2022/03/18 16:50:25;;;;;;;41.50;24.80;;;6.80;96.30;;;;;;4936818;29;20199;-77
2022/03/18 16:52:50;;;;;;;37.97;24.57;;;6.80;96.30;;;;;;4936442;29;20783;-79
2022/03/18 16:55:21;;;;;;;35.70;23.33;;;6.70;96.30;;;;;;4934540;29;20423;-76
2022/03/18 16:57:47;;;;;;;42.80;23.20;;;6.70;96.30;;;;;;4934825;29;20160;-77
2022/03/18 17:00:15;;;;;;;33.67;23.07;;;6.70;96.30;;;;;;4934856;29;20462;-77
2022/03/18 17:02:41;;;;;;;32.23;23.23;;;6.60;96.30;;;;;;4934992;29;20446;-78
2022/03/18 17:05:07;;;;;;;33.67;22.77;;;6.60;96.30;;;;;;4934941;29;20451;-77
2022/03/18 17:07:32;;;;;;;34.70;23.50;;;6.60;96.30;;;;;;4933455;29;20235;-77
2022/03/18 17:09:57;;;;;;;38.17;25.57;;;6.60;96.30;;;;;;4934878;29;20179;-77
2022/03/18 17:12:23;;;;;;;36.07;23.60;;;6.50;96.30;;;;;;4934777;29;20238;-79
2022/03/18 17:14:49;;;;;;;34.80;23.53;;;6.50;96.30;;;;;;4934827;29;20220;-76
2022/03/18 17:17:14;;;;;;;36.43;23.73;;;6.50;96.30;;;;;;4934747;29;20186;-77
2022/03/18 17:19:40;;;;;;;36.13;23.73;;;6.40;96.30;;;;;;4934500;29;20196;-79
2022/03/18 17:22:06;;;;;;;37.90;22.70;;;6.40;96.30;;;;;;4934681;29;20246;-77
2022/03/18 17:24:31;;;;;;;43.83;24.63;;;6.30;96.30;;;;;;4934708;29;20219;-78
2022/03/18 17:26:59;;;;;;;37.40;22.90;;;6.10;96.30;;;;;;4934696;29;20420;-77
2022/03/18 17:29:27;;;;;;;33.87;23.50;;;5.90;96.30;;;;;;4917423;29;20184;-77
2022/03/18 17:31:53;;;;;;;37.50;25.30;;;5.80;96.30;;;;;;4917481;29;20796;-77
2022/03/18 17:34:21;;;;;;;37.73;24.03;;;5.80;96.30;;;;;;4937770;29;20410;-78
2022/03/18 17:36:49;;;;;;;37.87;23.57;;;5.80;96.30;;;;;;4938556;29;20646;-77